Time;durP1;ratioP1;P1;durP2;ratioP2;P2;SDS_P1;SDS_P2;PMS_P1;PMS_P2;Temp;Humidity;BMP_temperature;BMP_pressure;BME280_temperature;BME280_humidity;BME280_pressure;Samples;Min_cycle;Max_cycle;Signal;HPM_P1;HPM_P2
2023/12/10 00:01:17;;;;;;;3.50;0.80;;;7.90;40.80;;;;;;5069385;27;20563;-70
2023/12/10 00:03:45;;;;;;;3.40;0.83;;;7.90;40.60;;;;;;5068614;28;20545;-70
2023/12/10 00:06:12;;;;;;;3.07;0.67;;;7.90;40.80;;;;;;5068574;28;20556;-70
2023/12/10 00:08:39;;;;;;;3.13;0.63;;;8.00;40.70;;;;;;5062822;28;20547;-70
2023/12/10 00:11:06;;;;;;;4.00;0.97;;;8.00;40.70;;;;;;5066614;28;20555;-72
2023/12/10 00:13:32;;;;;;;3.70;0.90;;;8.00;40.70;;;;;;5068472;28;20514;-70
2023/12/10 00:15:59;;;;;;;5.07;1.50;;;8.00;40.90;;;;;;5065908;28;20559;-69
2023/12/10 00:18:26;;;;;;;3.77;1.17;;;8.10;40.90;;;;;;5065065;28;20537;-70
2023/12/10 00:20:53;;;;;;;3.53;0.90;;;8.10;41.10;;;;;;5064373;28;20501;-70
2023/12/10 00:23:21;;;;;;;3.40;1.20;;;8.10;41.10;;;;;;5068754;28;20472;-69
2023/12/10 00:25:47;;;;;;;3.40;0.80;;;8.20;41.00;;;;;;5064008;28;20471;-70
2023/12/10 00:28:14;;;;;;;4.17;1.37;;;8.10;40.70;;;;;;5061890;28;20562;-70
2023/12/10 00:30:41;;;;;;;5.30;1.40;;;8.10;40.60;;;;;;5064493;28;20560;-70
2023/12/10 00:33:08;;;;;;;5.30;1.90;;;8.10;40.80;;;;;;5066220;28;21087;-70
2023/12/10 00:35:35;;;;;;;4.63;2.30;;;8.00;41.00;;;;;;5066503;28;20569;-70
2023/12/10 00:38:04;;;;;;;5.17;2.30;;;8.00;41.20;;;;;;5068039;28;20520;-70
2023/12/10 00:40:30;;;;;;;4.43;2.17;;;8.00;41.30;;;;;;5066346;28;20541;-70
2023/12/10 00:42:58;;;;;;;3.27;0.80;;;8.00;41.30;;;;;;5071046;28;20612;-70
2023/12/10 00:45:25;;;;;;;3.80;1.30;;;8.10;41.30;;;;;;5073172;28;20455;-70
2023/12/10 00:47:52;;;;;;;3.70;1.50;;;8.00;41.30;;;;;;5061483;28;20519;-70
2023/12/10 00:50:19;;;;;;;4.37;1.93;;;8.00;42.00;;;;;;5070505;28;21070;-70
2023/12/10 00:52:46;;;;;;;5.00;1.83;;;8.00;41.50;;;;;;5070130;28;20545;-70
2023/12/10 00:55:15;;;;;;;4.37;1.93;;;8.00;41.40;;;;;;5073285;28;20487;-70
2023/12/10 00:57:41;;;;;;;4.57;1.73;;;8.00;41.30;;;;;;5067881;28;20538;-71
2023/12/10 01:00:09;;;;;;;4.47;1.70;;;8.00;41.30;;;;;;5070215;28;20540;-71
2023/12/10 01:02:36;;;;;;;6.10;1.63;;;8.00;41.20;;;;;;5067348;28;20508;-70
2023/12/10 01:05:04;;;;;;;4.70;1.37;;;8.00;41.20;;;;;;5068090;28;20556;-69
2023/12/10 01:07:30;;;;;;;10.40;1.77;;;8.00;41.30;;;;;;5070840;28;20488;-69
2023/12/10 01:09:57;;;;;;;3.77;1.30;;;8.00;41.30;;;;;;5069134;28;20492;-69
2023/12/10 01:12:26;;;;;;;3.97;1.03;;;8.00;41.20;;;;;;5071440;28;20544;-71
2023/12/10 01:14:53;;;;;;;4.23;1.50;;;8.00;40.80;;;;;;5069875;28;20492;-69
2023/12/10 01:17:19;;;;;;;4.13;1.50;;;8.00;40.70;;;;;;5069266;28;20488;-69
2023/12/10 01:19:47;;;;;;;5.60;1.00;;;8.00;40.80;;;;;;5067587;28;20551;-68
2023/12/10 01:22:14;;;;;;;7.90;1.30;;;7.90;40.50;;;;;;5071547;28;20573;-71
2023/12/10 01:24:41;;;;;;;3.73;1.17;;;8.00;40.20;;;;;;5070111;28;20544;-70
2023/12/10 01:27:09;;;;;;;7.00;1.70;;;7.90;39.90;;;;;;5070367;28;20562;-69
2023/12/10 01:29:37;;;;;;;5.60;1.13;;;7.90;39.90;;;;;;5074421;28;20980;-69
2023/12/10 01:32:04;;;;;;;5.73;1.50;;;8.00;39.70;;;;;;5068873;28;20504;-69
2023/12/10 01:34:31;;;;;;;3.93;0.97;;;7.90;39.60;;;;;;5068661;28;20929;-69
2023/12/10 01:36:58;;;;;;;5.27;1.20;;;7.90;39.60;;;;;;5066415;28;20575;-69
2023/12/10 01:39:25;;;;;;;8.03;1.70;;;7.90;39.80;;;;;;5067102;28;20529;-69
2023/12/10 01:41:52;;;;;;;4.63;1.00;;;7.90;39.80;;;;;;5064737;28;20480;-69
2023/12/10 01:44:19;;;;;;;5.27;1.07;;;7.90;39.90;;;;;;5063532;28;20560;-69
2023/12/10 01:46:47;;;;;;;7.47;1.27;;;7.90;40.10;;;;;;5069211;28;20564;-69
2023/12/10 01:49:15;;;;;;;5.50;1.10;;;7.90;40.00;;;;;;5069406;28;20544;-69
2023/12/10 01:51:44;;;;;;;6.23;1.70;;;7.90;39.80;;;;;;5065357;28;20481;-69
2023/12/10 01:54:23;;;;;;;8.93;1.20;;;7.90;40.00;;;;;;5067294;28;20544;-69
2023/12/10 01:56:51;;;;;;;7.20;1.23;;;7.90;39.90;;;;;;5066282;28;20576;-69
2023/12/10 01:59:19;;;;;;;11.77;1.70;;;8.00;39.80;;;;;;5070168;28;20544;-69
2023/12/10 02:01:47;;;;;;;8.80;1.50;;;7.90;39.70;;;;;;5069794;28;20492;-68
2023/12/10 02:04:16;;;;;;;5.03;1.20;;;7.90;39.30;;;;;;5069216;28;20460;-68
2023/12/10 02:06:42;;;;;;;7.63;1.60;;;8.00;39.10;;;;;;5069244;28;20572;-70
2023/12/10 02:09:13;;;;;;;8.07;1.27;;;7.90;39.00;;;;;;5073314;28;20637;-69
2023/12/10 02:11:40;;;;;;;9.83;2.00;;;7.90;38.80;;;;;;5068721;28;20848;-70
2023/12/10 02:14:07;;;;;;;6.27;1.30;;;7.90;38.70;;;;;;5074194;28;20553;-69
2023/12/10 02:16:34;;;;;;;9.33;1.60;;;7.90;38.20;;;;;;5067832;28;21278;-70
2023/12/10 02:19:02;;;;;;;8.23;1.77;;;7.90;38.20;;;;;;5067159;28;20501;-69
2023/12/10 02:21:31;;;;;;;9.60;1.80;;;7.90;38.10;;;;;;5065429;28;20537;-69
2023/12/10 02:24:02;;;;;;;8.60;1.53;;;7.90;38.00;;;;;;5069554;28;20536;-69
2023/12/10 02:26:31;;;;;;;8.63;1.80;;;7.90;38.00;;;;;;5062621;28;20504;-69
2023/12/10 02:28:58;;;;;;;6.60;1.20;;;7.90;38.00;;;;;;5063092;28;20505;-69
2023/12/10 02:31:25;;;;;;;7.87;1.90;;;7.90;37.90;;;;;;5058608;28;20545;-70
2023/12/10 02:33:52;;;;;;;7.23;1.27;;;7.90;37.80;;;;;;5047314;28;20436;-69
2023/12/10 02:36:19;;;;;;;9.43;2.10;;;7.80;37.60;;;;;;5047022;28;20573;-69
2023/12/10 02:38:48;;;;;;;7.13;1.70;;;7.90;37.70;;;;;;5049372;28;20489;-69
2023/12/10 02:41:15;;;;;;;8.37;1.87;;;7.80;37.50;;;;;;5048091;28;20949;-69
2023/12/10 02:43:43;;;;;;;6.60;1.90;;;7.80;37.40;;;;;;5044694;28;20565;-69
2023/12/10 02:46:10;;;;;;;14.40;1.60;;;7.80;37.40;;;;;;5050346;28;21030;-70
2023/12/10 02:48:37;;;;;;;7.27;1.23;;;7.80;37.10;;;;;;5047121;28;20557;-69
2023/12/10 02:51:04;;;;;;;15.37;2.23;;;7.80;37.00;;;;;;5047883;28;20551;-71
2023/12/10 02:53:31;;;;;;;8.50;1.70;;;7.80;36.90;;;;;;5039611;28;20565;-71
2023/12/10 02:55:58;;;;;;;8.70;2.13;;;7.80;36.80;;;;;;5046724;28;20561;-70
2023/12/10 02:58:25;;;;;;;8.40;1.77;;;7.80;36.70;;;;;;5045942;28;20454;-71
2023/12/10 03:00:53;;;;;;;12.70;2.37;;;7.80;36.50;;;;;;5054274;28;20511;-72
2023/12/10 03:03:20;;;;;;;9.33;1.97;;;7.80;36.30;;;;;;5069680;28;20561;-71
2023/12/10 03:05:47;;;;;;;8.60;1.30;;;7.80;36.10;;;;;;5063200;28;20542;-71
2023/12/10 03:08:14;;;;;;;10.57;1.53;;;7.80;36.10;;;;;;5058012;28;20579;-70
2023/12/10 03:10:41;;;;;;;7.73;1.80;;;7.80;35.90;;;;;;5062753;28;20494;-69
2023/12/10 03:13:08;;;;;;;5.53;1.87;;;7.80;35.70;;;;;;5066340;28;20500;-71
2023/12/10 03:15:35;;;;;;;10.50;1.67;;;7.80;35.50;;;;;;5071857;28;20504;-70
2023/12/10 03:18:05;;;;;;;7.00;2.27;;;7.80;35.30;;;;;;5068542;28;20572;-69
2023/12/10 03:20:32;;;;;;;7.63;1.40;;;7.80;35.30;;;;;;5066364;28;20463;-71
2023/12/10 03:22:59;;;;;;;7.53;1.83;;;7.80;35.30;;;;;;5067959;28;20552;-69
2023/12/10 03:25:26;;;;;;;7.50;1.53;;;7.80;35.30;;;;;;5065433;28;20474;-69
2023/12/10 03:27:53;;;;;;;8.37;2.03;;;7.80;35.90;;;;;;5065413;28;20508;-71
2023/12/10 03:30:20;;;;;;;10.30;1.73;;;7.80;35.10;;;;;;5065465;27;20576;-71
2023/12/10 03:32:46;;;;;;;9.87;2.40;;;7.80;34.90;;;;;;5067137;28;21902;-70
2023/12/10 03:35:15;;;;;;;8.20;1.83;;;7.80;34.90;;;;;;5069298;28;20504;-71
2023/12/10 03:37:42;;;;;;;6.83;1.70;;;7.80;34.60;;;;;;5064189;28;20576;-69
2023/12/10 03:40:10;;;;;;;18.60;2.40;;;7.70;34.50;;;;;;5066313;28;20501;-69
2023/12/10 03:42:37;;;;;;;7.57;2.13;;;7.80;34.30;;;;;;5067219;28;20493;-69
2023/12/10 03:45:04;;;;;;;7.70;1.60;;;7.70;34.10;;;;;;5062499;28;20523;-69
2023/12/10 03:47:31;;;;;;;12.00;2.53;;;7.70;34.00;;;;;;5061237;28;20568;-69
2023/12/10 03:49:58;;;;;;;7.73;1.70;;;7.70;34.00;;;;;;5064383;28;20553;-69
2023/12/10 03:52:27;;;;;;;6.93;1.47;;;7.70;33.70;;;;;;5061959;28;20985;-70
2023/12/10 03:54:53;;;;;;;8.80;1.30;;;7.60;33.20;;;;;;5064504;28;20537;-69
2023/12/10 03:57:20;;;;;;;17.67;3.00;;;7.60;32.80;;;;;;5063407;28;20520;-69
2023/12/10 03:59:47;;;;;;;6.37;1.60;;;7.50;33.10;;;;;;5060033;28;20548;-69
2023/12/10 04:02:15;;;;;;;10.90;2.00;;;7.50;32.90;;;;;;5064204;28;20572;-69
2023/12/10 04:04:42;;;;;;;8.43;1.90;;;7.50;33.00;;;;;;5062691;28;20472;-69
2023/12/10 04:07:08;;;;;;;6.40;1.20;;;7.40;32.80;;;;;;5066779;28;20567;-69
2023/12/10 04:09:37;;;;;;;10.70;1.83;;;7.40;32.70;;;;;;5070424;28;20500;-69
2023/12/10 04:12:05;;;;;;;6.23;1.87;;;7.40;32.70;;;;;;5065554;28;20484;-69
2023/12/10 04:14:32;;;;;;;10.10;2.40;;;7.30;32.90;;;;;;5067268;28;20496;-69
2023/12/10 04:16:59;;;;;;;10.03;1.63;;;7.20;32.90;;;;;;5066439;28;20572;-69
2023/12/10 04:19:26;;;;;;;10.37;2.50;;;7.20;33.10;;;;;;5065721;28;20544;-69
2023/12/10 04:21:53;;;;;;;17.00;3.23;;;7.20;33.30;;;;;;5060993;28;20560;-69
2023/12/10 04:24:20;;;;;;;10.63;1.70;;;7.20;33.40;;;;;;5065464;28;20548;-70
2023/12/10 04:26:48;;;;;;;9.07;2.10;;;7.20;33.50;;;;;;5065081;28;20495;-69
2023/12/10 04:29:15;;;;;;;12.87;2.93;;;7.20;33.50;;;;;;5062468;28;20500;-69
2023/12/10 04:31:42;;;;;;;12.00;2.20;;;7.20;33.50;;;;;;5051875;28;20543;-70
2023/12/10 04:34:09;;;;;;;11.83;2.90;;;7.20;33.60;;;;;;5047818;28;20537;-69
2023/12/10 04:36:36;;;;;;;11.60;2.50;;;7.20;33.70;;;;;;5044801;28;20581;-69
2023/12/10 04:39:03;;;;;;;12.20;2.60;;;7.20;33.80;;;;;;5055021;28;20493;-69
2023/12/10 04:41:29;;;;;;;18.33;2.50;;;7.20;33.60;;;;;;5049226;28;20934;-69
2023/12/10 04:43:58;;;;;;;21.93;3.30;;;7.10;33.30;;;;;;5047465;28;20564;-69
2023/12/10 04:46:24;;;;;;;19.53;2.57;;;7.20;33.70;;;;;;5048954;28;20509;-69
2023/12/10 04:48:52;;;;;;;16.60;4.20;;;7.20;33.90;;;;;;5049244;22;20586;-67
2023/12/10 04:51:19;;;;;;;12.33;2.50;;;7.10;34.00;;;;;;5028078;28;20529;-67
2023/12/10 04:53:46;;;;;;;12.07;2.80;;;7.10;34.20;;;;;;5020394;28;21039;-67
2023/12/10 04:56:12;;;;;;;15.80;2.80;;;7.10;34.20;;;;;;5031361;28;20566;-67
2023/12/10 04:58:39;;;;;;;12.83;2.60;;;7.10;34.10;;;;;;5027903;28;20550;-67
2023/12/10 05:01:08;;;;;;;12.10;2.83;;;7.10;34.00;;;;;;5027781;28;20498;-67
2023/12/10 05:03:35;;;;;;;10.90;3.17;;;7.10;34.00;;;;;;5028470;28;20490;-67
2023/12/10 05:06:02;;;;;;;11.63;2.50;;;7.10;33.90;;;;;;5028351;28;20550;-67
2023/12/10 05:08:29;;;;;;;14.37;2.50;;;7.10;33.60;;;;;;5032155;28;20552;-68
2023/12/10 05:10:56;;;;;;;9.60;2.40;;;7.10;33.50;;;;;;5031380;28;20817;-66
2023/12/10 05:13:23;;;;;;;14.57;3.03;;;7.10;33.30;;;;;;5030205;28;20944;-67
2023/12/10 05:15:50;;;;;;;16.07;2.30;;;7.10;33.30;;;;;;5029719;28;20590;-67
2023/12/10 05:18:18;;;;;;;16.93;3.07;;;7.10;33.20;;;;;;5027970;28;20574;-67
2023/12/10 05:20:45;;;;;;;16.17;3.47;;;7.10;33.20;;;;;;5023637;28;20494;-67
2023/12/10 05:23:12;;;;;;;13.27;2.60;;;7.00;33.10;;;;;;5034874;28;20872;-67
2023/12/10 05:25:39;;;;;;;11.50;2.50;;;7.00;32.60;;;;;;5033914;28;20493;-66
2023/12/10 05:28:06;;;;;;;15.60;2.80;;;7.00;32.40;;;;;;5030490;28;20518;-67
2023/12/10 05:30:33;;;;;;;12.70;2.50;;;7.00;32.60;;;;;;5031149;28;20486;-66
2023/12/10 05:32:59;;;;;;;13.27;3.50;;;7.10;32.50;;;;;;5033576;28;20890;-68
2023/12/10 05:35:28;;;;;;;11.50;2.73;;;7.10;32.10;;;;;;5029102;28;20615;-67
2023/12/10 05:37:55;;;;;;;12.63;3.47;;;7.20;32.10;;;;;;5035020;28;20507;-67
2023/12/10 05:40:25;;;;;;;15.10;3.10;;;7.20;32.00;;;;;;5034205;28;20541;-67
2023/12/10 05:42:52;;;;;;;14.37;3.23;;;7.20;32.60;;;;;;5035056;28;20497;-67
2023/12/10 05:45:19;;;;;;;9.87;2.13;;;7.20;31.70;;;;;;5062425;28;20447;-67
2023/12/10 05:47:46;;;;;;;17.30;4.47;;;7.20;31.90;;;;;;5051800;28;20478;-68
2023/12/10 05:50:12;;;;;;;9.23;2.77;;;7.20;31.80;;;;;;5029777;28;20566;-66
2023/12/10 05:52:40;;;;;;;12.27;3.60;;;7.30;31.80;;;;;;5027858;28;20541;-67
2023/12/10 05:55:08;;;;;;;13.40;2.43;;;7.20;32.00;;;;;;5028095;28;20232;-67
2023/12/10 05:57:35;;;;;;;11.30;2.70;;;7.30;32.00;;;;;;5028532;28;20486;-67
2023/12/10 06:00:03;;;;;;;17.40;2.90;;;7.30;31.90;;;;;;5023396;28;21014;-67
2023/12/10 06:02:30;;;;;;;13.23;3.43;;;7.30;31.70;;;;;;5047817;28;20559;-66
2023/12/10 06:04:57;;;;;;;20.90;3.20;;;7.30;31.70;;;;;;5048877;28;20509;-68
2023/12/10 06:07:24;;;;;;;10.73;2.70;;;7.20;31.80;;;;;;5046408;28;20570;-66
2023/12/10 06:09:52;;;;;;;14.57;2.93;;;7.20;31.90;;;;;;5042567;28;20895;-66
2023/12/10 06:12:19;;;;;;;15.27;2.40;;;7.10;32.00;;;;;;5046767;28;20497;-67
2023/12/10 06:14:46;;;;;;;16.13;2.70;;;7.10;32.00;;;;;;5047436;28;20557;-67
2023/12/10 06:17:13;;;;;;;10.73;2.83;;;7.10;32.00;;;;;;5049994;28;20577;-67
2023/12/10 06:19:39;;;;;;;19.13;3.83;;;7.10;32.00;;;;;;5049507;28;20510;-67
2023/12/10 06:22:06;;;;;;;12.07;1.93;;;7.00;31.90;;;;;;5046047;28;20466;-67
2023/12/10 06:24:33;;;;;;;15.17;3.00;;;7.00;32.00;;;;;;5049366;28;20546;-67
2023/12/10 06:27:02;;;;;;;12.13;2.70;;;7.00;32.00;;;;;;5045540;28;20513;-67
2023/12/10 06:29:29;;;;;;;13.43;3.10;;;6.90;31.90;;;;;;5047373;28;20957;-67
2023/12/10 06:31:56;;;;;;;17.43;2.70;;;7.00;31.80;;;;;;5046618;28;20624;-67
2023/12/10 06:34:23;;;;;;;12.97;2.83;;;7.00;31.60;;;;;;5049878;28;20516;-67
2023/12/10 06:36:49;;;;;;;11.43;2.73;;;7.00;31.20;;;;;;5047627;28;20573;-67
2023/12/10 06:39:17;;;;;;;12.80;3.83;;;7.00;31.30;;;;;;5046527;28;20552;-66
2023/12/10 06:41:44;;;;;;;18.03;2.83;;;7.00;31.20;;;;;;5043907;28;20470;-67
2023/12/10 06:44:15;;;;;;;12.23;3.13;;;7.00;31.10;;;;;;5050223;28;20494;-67
2023/12/10 06:46:42;;;;;;;18.10;3.00;;;7.00;31.10;;;;;;5049433;28;20540;-67
2023/12/10 06:49:09;;;;;;;11.90;2.50;;;7.00;31.00;;;;;;5047734;28;20462;-67
2023/12/10 06:51:35;;;;;;;13.80;3.00;;;7.00;30.80;;;;;;5046039;28;20489;-67
2023/12/10 06:54:02;;;;;;;16.73;2.80;;;7.00;30.60;;;;;;5045845;28;20497;-67
2023/12/10 06:56:29;;;;;;;14.47;2.80;;;7.00;30.50;;;;;;5049468;28;20517;-67
2023/12/10 06:58:56;;;;;;;15.30;3.37;;;7.00;30.70;;;;;;5047310;28;20473;-67
2023/12/10 07:01:25;;;;;;;12.40;3.27;;;7.00;30.60;;;;;;5035422;28;20503;-67
2023/12/10 07:03:51;;;;;;;14.47;2.60;;;7.00;30.50;;;;;;5031406;28;20534;-67
2023/12/10 07:06:18;;;;;;;14.87;2.83;;;7.00;30.50;;;;;;5028436;28;20502;-67
2023/12/10 07:08:46;;;;;;;11.63;3.60;;;7.00;30.20;;;;;;5030394;28;20486;-68
2023/12/10 07:11:13;;;;;;;18.60;3.70;;;7.00;30.20;;;;;;5025142;28;20549;-66
2023/12/10 07:13:40;;;;;;;11.20;2.43;;;7.00;29.90;;;;;;5026143;28;20466;-66
2023/12/10 07:16:08;;;;;;;12.70;2.80;;;7.00;29.90;;;;;;5021629;28;21062;-66
2023/12/10 07:18:36;;;;;;;15.23;2.57;;;7.00;29.80;;;;;;5026424;28;20571;-66
2023/12/10 07:21:03;;;;;;;12.67;2.30;;;7.00;29.50;;;;;;5021640;28;20550;-65
2023/12/10 07:23:30;;;;;;;12.13;2.70;;;7.00;29.70;;;;;;5028614;28;20508;-67
2023/12/10 07:25:56;;;;;;;17.73;3.27;;;7.10;29.90;;;;;;5026927;28;20545;-67
2023/12/10 07:28:23;;;;;;;15.17;3.00;;;7.20;29.40;;;;;;5025144;28;20498;-66
2023/12/10 07:30:50;;;;;;;16.40;4.10;;;7.20;29.00;;;;;;5024760;28;20907;-66
2023/12/10 07:33:17;;;;;;;17.17;3.70;;;7.30;28.80;;;;;;5028393;28;20503;-66
2023/12/10 07:35:45;;;;;;;15.80;2.70;;;7.30;28.40;;;;;;5026229;28;20558;-66
2023/12/10 07:38:12;;;;;;;18.27;3.13;;;7.30;28.40;;;;;;5021096;28;21265;-66
2023/12/10 07:40:39;;;;;;;13.87;3.37;;;7.40;27.80;;;;;;5026208;28;20538;-66
2023/12/10 07:43:07;;;;;;;9.90;2.10;;;7.40;27.80;;;;;;5028360;28;20494;-66
2023/12/10 07:45:34;;;;;;;13.83;3.93;;;7.40;27.30;;;;;;5025843;28;20498;-66
2023/12/10 07:48:01;;;;;;;14.93;3.47;;;7.60;27.30;;;;;;5025430;28;20502;-66
2023/12/10 07:50:28;;;;;;;12.70;2.90;;;7.50;27.40;;;;;;5026095;28;20509;-65
2023/12/10 07:52:56;;;;;;;17.33;3.60;;;7.60;27.10;;;;;;5023971;28;20454;-66
2023/12/10 07:55:23;;;;;;;15.50;3.47;;;7.60;26.90;;;;;;5027129;28;20558;-66
2023/12/10 07:57:50;;;;;;;12.70;2.57;;;7.60;26.80;;;;;;5024668;28;20607;-66
2023/12/10 08:00:17;;;;;;;10.43;2.67;;;7.60;26.50;;;;;;5025164;28;20990;-66
2023/12/10 08:02:44;;;;;;;14.30;3.80;;;7.70;26.40;;;;;;5027603;28;20466;-66
2023/12/10 08:05:13;;;;;;;16.50;5.53;;;7.70;26.20;;;;;;5025478;28;20991;-66
2023/12/10 08:07:40;;;;;;;9.30;2.70;;;7.70;26.00;;;;;;5027485;28;20510;-66
2023/12/10 08:10:09;;;;;;;11.23;2.90;;;7.70;25.70;;;;;;5022309;28;20473;-66
2023/12/10 08:12:36;;;;;;;9.90;2.93;;;7.70;25.50;;;;;;5023898;28;20885;-66
2023/12/10 08:15:03;;;;;;;14.87;2.70;;;7.80;25.10;;;;;;5024294;28;20497;-66
2023/12/10 08:17:30;;;;;;;10.40;2.10;;;7.80;25.00;;;;;;5025443;28;20487;-66
2023/12/10 08:19:57;;;;;;;12.40;2.47;;;7.90;24.70;;;;;;5024785;28;20545;-67
2023/12/10 08:22:23;;;;;;;8.50;2.37;;;7.90;24.40;;;;;;5020761;28;21954;-65
2023/12/10 08:24:50;;;;;;;16.07;3.00;;;8.00;24.40;;;;;;5022291;28;20666;-66
2023/12/10 08:27:19;;;;;;;9.87;2.47;;;8.20;23.90;;;;;;5023155;28;20510;-66
2023/12/10 08:29:45;;;;;;;20.13;3.63;;;8.30;23.00;;;;;;5026411;28;20542;-66
2023/12/10 08:32:12;;;;;;;15.73;2.80;;;8.30;22.80;;;;;;5026403;28;20562;-66
2023/12/10 08:34:39;;;;;;;14.53;2.90;;;8.30;22.50;;;;;;5023912;28;20498;-66
2023/12/10 08:37:07;;;;;;;13.73;3.03;;;8.30;22.60;;;;;;5025392;28;20907;-66
2023/12/10 08:39:34;;;;;;;9.80;2.03;;;8.40;22.40;;;;;;5045575;28;20500;-66
2023/12/10 08:42:01;;;;;;;13.90;2.70;;;8.50;22.20;;;;;;5050311;28;20447;-66
2023/12/10 08:44:30;;;;;;;12.40;3.60;;;8.40;22.00;;;;;;5020347;28;21054;-66
2023/12/10 08:46:56;;;;;;;11.60;2.10;;;8.50;21.80;;;;;;5025721;28;20525;-66
2023/12/10 08:49:23;;;;;;;10.37;2.30;;;8.60;21.00;;;;;;5020404;28;20557;-66
2023/12/10 08:51:51;;;;;;;10.63;3.20;;;8.60;20.80;;;;;;5020827;28;20575;-67
2023/12/10 08:54:18;;;;;;;14.43;2.57;;;8.70;21.30;;;;;;5026450;28;20501;-67
2023/12/10 08:56:44;;;;;;;13.60;2.33;;;8.80;19.70;;;;;;5030540;28;20566;-67
2023/12/10 08:59:11;;;;;;;13.30;2.87;;;9.00;19.40;;;;;;5027171;28;20550;-67
2023/12/10 09:01:40;;;;;;;8.77;2.00;;;9.00;18.90;;;;;;5014282;28;20483;-67
2023/12/10 09:04:07;;;;;;;12.63;2.43;;;9.00;18.90;;;;;;5030647;28;20482;-66
2023/12/10 09:06:34;;;;;;;14.97;3.10;;;9.10;18.60;;;;;;5030614;28;21021;-66
2023/12/10 09:09:01;;;;;;;8.57;2.50;;;9.10;18.80;;;;;;5026171;28;20547;-66
2023/12/10 09:11:28;;;;;;;9.40;2.97;;;9.10;18.50;;;;;;5028408;28;20510;-67
2023/12/10 09:13:54;;;;;;;12.20;2.63;;;9.20;18.30;;;;;;5026853;28;20859;-66
2023/12/10 09:16:22;;;;;;;12.17;3.97;;;9.20;18.20;;;;;;5030495;28;20565;-67
2023/12/10 09:18:51;;;;;;;11.30;2.23;;;9.20;17.90;;;;;;5028445;28;20490;-66
2023/12/10 09:21:17;;;;;;;15.73;3.07;;;9.20;17.70;;;;;;5026521;28;20463;-67
2023/12/10 09:23:44;;;;;;;14.53;2.53;;;9.20;17.80;;;;;;5028684;28;20541;-66
2023/12/10 09:26:11;;;;;;;11.30;2.10;;;9.30;18.20;;;;;;5025239;28;20491;-67
2023/12/10 09:28:38;;;;;;;12.30;2.90;;;9.20;17.40;;;;;;5030029;28;20493;-68
2023/12/10 09:31:05;;;;;;;9.67;2.00;;;9.30;17.60;;;;;;5036478;28;20557;-67
2023/12/10 09:33:32;;;;;;;10.00;2.60;;;9.40;17.40;;;;;;5045474;28;20490;-67
2023/12/10 09:36:00;;;;;;;9.53;3.03;;;9.60;17.00;;;;;;5045810;28;20549;-67
2023/12/10 09:38:27;;;;;;;9.87;2.70;;;9.70;16.50;;;;;;5045125;28;20574;-68
2023/12/10 09:40:54;;;;;;;8.00;2.00;;;9.80;16.00;;;;;;5046047;28;20552;-67
2023/12/10 09:43:21;;;;;;;9.10;1.97;;;10.10;16.80;;;;;;5043947;28;20565;-67
2023/12/10 09:45:48;;;;;;;12.50;2.60;;;11.00;16.20;;;;;;5046991;28;20466;-68
2023/12/10 09:48:16;;;;;;;13.67;2.73;;;11.60;12.50;;;;;;5046329;28;20501;-67
2023/12/10 09:50:43;;;;;;;6.10;2.20;;;11.70;12.20;;;;;;5045682;28;21018;-67
2023/12/10 09:53:11;;;;;;;11.73;2.40;;;11.50;12.60;;;;;;5046278;28;20486;-68
2023/12/10 09:55:38;;;;;;;11.07;2.20;;;11.30;12.40;;;;;;5045415;28;20474;-68
2023/12/10 09:58:05;;;;;;;12.70;3.10;;;11.20;12.00;;;;;;5044002;28;20489;-67
2023/12/10 10:00:32;;;;;;;13.20;3.93;;;11.10;13.00;;;;;;5049523;28;20545;-67
2023/12/10 10:03:02;;;;;;;13.13;2.93;;;11.00;13.10;;;;;;5050965;28;20885;-67
2023/12/10 10:05:29;;;;;;;9.30;2.50;;;10.90;14.00;;;;;;5042946;28;20907;-67
2023/12/10 10:07:56;;;;;;;11.60;2.60;;;11.00;14.40;;;;;;5049085;28;20470;-67
2023/12/10 10:10:25;;;;;;;13.10;2.53;;;11.30;14.70;;;;;;5050227;28;20950;-67
2023/12/10 10:12:54;;;;;;;9.93;3.23;;;11.60;13.80;;;;;;5050009;28;20516;-67
2023/12/10 10:15:27;;;;;;;9.40;2.33;;;11.90;12.50;;;;;;5050462;28;20462;-68
2023/12/10 10:17:55;;;;;;;11.73;1.97;;;12.20;12.20;;;;;;5046810;28;20576;-67
2023/12/10 10:20:23;;;;;;;13.40;3.77;;;12.50;11.70;;;;;;5049376;28;20836;-67
2023/12/10 10:22:51;;;;;;;9.43;2.33;;;12.80;11.70;;;;;;5049613;28;20497;-67
2023/12/10 10:25:19;;;;;;;7.97;2.00;;;13.00;10.80;;;;;;5046097;28;20549;-68
2023/12/10 10:27:48;;;;;;;8.40;2.93;;;13.40;10.40;;;;;;5050230;28;20549;-68
2023/12/10 10:30:14;;;;;;;8.50;2.20;;;13.70;9.10;;;;;;5046599;28;20450;-67
2023/12/10 10:32:41;;;;;;;10.03;2.50;;;14.00;8.40;;;;;;5045927;28;20458;-67
2023/12/10 10:35:09;;;;;;;15.10;2.87;;;14.10;7.50;;;;;;5048610;28;20524;-67
2023/12/10 10:37:36;;;;;;;8.70;2.20;;;14.10;6.80;;;;;;5050180;28;20577;-67
2023/12/10 10:40:04;;;;;;;7.87;2.67;;;14.20;6.20;;;;;;5049301;28;20771;-67
2023/12/10 10:42:31;;;;;;;8.70;2.67;;;14.10;6.70;;;;;;5049742;28;20462;-68
2023/12/10 10:45:00;;;;;;;11.43;2.90;;;14.10;6.90;;;;;;5048987;28;20557;-68
2023/12/10 10:49:57;;;;;;;14.87;3.60;;;13.90;7.10;;;;;;5039648;28;20571;-67
2023/12/10 10:52:27;;;;;;;12.30;3.73;;;14.10;6.80;;;;;;5045207;28;20553;-68
2023/12/10 10:54:55;;;;;;;12.30;3.50;;;14.20;7.50;;;;;;5044266;28;20912;-67
2023/12/10 10:57:29;;;;;;;8.60;2.40;;;14.30;6.20;;;;;;5052551;28;20481;-67
2023/12/10 10:59:56;;;;;;;9.43;2.70;;;14.40;5.50;;;;;;5061188;28;20468;-67
2023/12/10 11:02:25;;;;;;;8.67;2.20;;;14.20;5.70;;;;;;5069003;28;20564;-67
2023/12/10 11:04:52;;;;;;;12.33;2.30;;;14.20;5.10;;;;;;5061595;28;20532;-67
2023/12/10 11:07:21;;;;;;;8.90;2.17;;;14.10;5.20;;;;;;5063096;28;20924;-67
2023/12/10 11:09:58;;;;;;;7.67;2.07;;;13.80;5.40;;;;;;5061878;28;20469;-67
2023/12/10 11:12:45;;;;;;;12.97;2.63;;;13.50;6.00;;;;;;5060934;28;20483;-67
2023/12/10 11:15:23;;;;;;;10.70;2.23;;;13.20;6.30;;;;;;5062162;28;20544;-67
2023/12/10 11:17:52;;;;;;;8.80;1.80;;;12.90;6.90;;;;;;5062818;28;20491;-67
2023/12/10 11:20:37;;;;;;;11.83;2.43;;;12.70;7.90;;;;;;5060154;28;20498;-67
2023/12/10 11:23:05;;;;;;;11.57;2.30;;;12.50;8.30;;;;;;5060408;28;20492;-68
2023/12/10 11:25:33;;;;;;;8.27;1.60;;;12.30;8.80;;;;;;5063655;28;21064;-67
2023/12/10 11:28:02;;;;;;;13.50;2.63;;;12.10;9.50;;;;;;5064097;28;20560;-67
2023/12/10 11:30:29;;;;;;;8.40;2.10;;;11.90;9.80;;;;;;5065582;28;20557;-67
2023/12/10 11:32:57;;;;;;;10.30;4.20;;;11.70;10.40;;;;;;5057934;28;20497;-67
2023/12/10 11:35:24;;;;;;;10.57;2.70;;;11.60;11.00;;;;;;5064849;28;20870;-67
2023/12/10 11:37:51;;;;;;;8.53;2.40;;;11.50;11.90;;;;;;5066593;28;20560;-67
2023/12/10 11:40:18;;;;;;;10.13;2.47;;;11.40;12.10;;;;;;5060032;28;20556;-67
2023/12/10 11:42:45;;;;;;;9.27;2.10;;;11.30;12.20;;;;;;5059494;28;20495;-67
2023/12/10 11:45:13;;;;;;;10.20;2.73;;;11.20;12.40;;;;;;5066172;28;20544;-67
2023/12/10 11:47:42;;;;;;;11.57;2.20;;;11.10;12.80;;;;;;5060073;28;20934;-68
2023/12/10 11:50:11;;;;;;;10.57;2.33;;;11.00;12.80;;;;;;5061567;28;20461;-67
2023/12/10 11:52:39;;;;;;;9.33;2.30;;;10.90;13.20;;;;;;5061529;28;20551;-67
2023/12/10 11:55:08;;;;;;;12.43;2.30;;;10.90;13.60;;;;;;5059980;28;20538;-67
2023/12/10 11:57:40;;;;;;;8.20;2.20;;;11.00;13.80;;;;;;5060894;28;20487;-67
2023/12/10 12:00:09;;;;;;;9.27;2.33;;;11.00;13.60;;;;;;5059704;28;20958;-67
2023/12/10 12:02:41;;;;;;;7.60;2.47;;;11.00;13.70;;;;;;5064376;28;20480;-67
2023/12/10 12:05:10;;;;;;;6.27;1.97;;;10.90;13.90;;;;;;5066106;28;20461;-67
2023/12/10 12:07:38;;;;;;;9.40;2.53;;;10.90;13.90;;;;;;5062181;28;20534;-66
2023/12/10 12:10:06;;;;;;;7.10;2.00;;;10.90;13.50;;;;;;5060890;28;20548;-67
2023/12/10 12:12:37;;;;;;;8.13;2.23;;;10.90;13.70;;;;;;5058798;28;20543;-67
2023/12/10 12:15:04;;;;;;;8.90;2.30;;;10.90;13.90;;;;;;5063505;28;20532;-67
2023/12/10 12:17:31;;;;;;;6.33;1.57;;;10.90;13.70;;;;;;5061685;28;20618;-67
2023/12/10 12:20:18;;;;;;;6.97;1.83;;;10.90;14.00;;;;;;5062395;28;20559;-67
2023/12/10 12:22:45;;;;;;;6.17;1.63;;;10.90;14.20;;;;;;5061026;28;20469;-67
2023/12/10 12:25:12;;;;;;;7.73;2.37;;;10.90;14.00;;;;;;5060781;28;20552;-67
2023/12/10 12:27:39;;;;;;;7.40;2.10;;;10.80;14.40;;;;;;5061670;28;20564;-67
2023/12/10 12:30:07;;;;;;;7.20;2.13;;;10.70;14.40;;;;;;5057669;28;20531;-68
2023/12/10 12:32:34;;;;;;;8.30;1.57;;;10.70;14.60;;;;;;5062606;28;20524;-68
2023/12/10 12:35:01;;;;;;;7.90;2.23;;;10.70;14.70;;;;;;5064768;28;20556;-68
2023/12/10 12:37:29;;;;;;;10.40;1.53;;;10.60;14.60;;;;;;5067713;28;21015;-68
2023/12/10 12:39:57;;;;;;;6.50;1.63;;;10.50;14.80;;;;;;5063640;28;20552;-68
2023/12/10 12:42:24;;;;;;;8.50;2.43;;;10.50;15.30;;;;;;5063963;28;20459;-68
2023/12/10 12:44:52;;;;;;;7.80;2.03;;;10.50;15.20;;;;;;5063983;28;20587;-68
2023/12/10 12:47:19;;;;;;;12.03;1.87;;;10.50;15.40;;;;;;5060688;28;20490;-68
2023/12/10 12:49:46;;;;;;;8.50;2.03;;;10.50;15.80;;;;;;5066172;28;20510;-68
2023/12/10 12:52:14;;;;;;;10.90;2.90;;;10.60;15.70;;;;;;5066733;28;20496;-68
2023/12/10 12:54:43;;;;;;;7.13;2.10;;;10.60;15.80;;;;;;5066278;28;20465;-68